Time;durP1;ratioP1;P1;durP2;ratioP2;P2;SDS_P1;SDS_P2;PMS_P1;PMS_P2;Temp;Humidity;BMP_temperature;BMP_pressure;BME280_temperature;BME280_humidity;BME280_pressure;Samples;Min_cycle;Max_cycle;Signal;HPM_P1;HPM_P2
2022/11/12 00:00:31;;;;;;;34.13;20.80;;;7.20;99.90;;;;;;4956867;28;20597;-68
2022/11/12 00:02:58;;;;;;;36.20;20.43;;;7.20;99.90;;;;;;4956856;29;20215;-67
2022/11/12 00:05:25;;;;;;;29.03;18.87;;;7.10;99.90;;;;;;4956427;29;20212;-67
2022/11/12 00:07:52;;;;;;;32.70;19.33;;;7.20;99.90;;;;;;4961209;28;20220;-68
2022/11/12 00:10:19;;;;;;;33.50;20.93;;;7.10;99.90;;;;;;4975824;28;20227;-66
2022/11/12 00:12:46;;;;;;;29.27;18.97;;;7.10;99.90;;;;;;4974559;28;20223;-67
2022/11/12 00:15:14;;;;;;;31.00;18.33;;;7.10;99.90;;;;;;4975124;28;20270;-66
2022/11/12 00:17:41;;;;;;;28.80;18.33;;;7.10;99.90;;;;;;4975344;28;20663;-67
2022/11/12 00:20:09;;;;;;;35.17;20.03;;;7.10;99.90;;;;;;4975389;28;20247;-68
2022/11/12 00:22:36;;;;;;;32.90;18.30;;;7.10;99.90;;;;;;4973840;28;20663;-68
2022/11/12 00:25:03;;;;;;;31.17;19.23;;;7.10;99.90;;;;;;4975507;28;20212;-68
2022/11/12 00:27:32;;;;;;;29.40;18.47;;;7.00;99.90;;;;;;4974991;28;20295;-68
2022/11/12 00:29:59;;;;;;;35.00;18.90;;;7.00;99.90;;;;;;4973865;28;20236;-67
2022/11/12 00:32:27;;;;;;;28.83;17.73;;;7.00;99.90;;;;;;4972554;28;20207;-66
2022/11/12 00:34:54;;;;;;;31.40;17.60;;;7.00;99.90;;;;;;4974373;28;20211;-67
2022/11/12 00:37:22;;;;;;;35.27;19.33;;;7.00;99.90;;;;;;4974175;28;20210;-66
2022/11/12 00:39:49;;;;;;;30.07;17.53;;;7.00;99.90;;;;;;4975485;28;20674;-67
2022/11/12 00:42:15;;;;;;;30.50;17.17;;;7.00;99.90;;;;;;4975375;28;20655;-68
2022/11/12 00:44:42;;;;;;;27.63;18.13;;;7.00;99.90;;;;;;4975432;28;20771;-68
2022/11/12 00:47:09;;;;;;;28.77;18.13;;;7.00;99.90;;;;;;4975163;28;20669;-67
2022/11/12 00:49:37;;;;;;;31.23;18.10;;;7.00;99.90;;;;;;4973909;28;20571;-68
2022/11/12 00:52:04;;;;;;;28.87;17.07;;;7.00;99.90;;;;;;4969877;28;20702;-67
2022/11/12 00:54:31;;;;;;;30.83;17.03;;;7.00;99.90;;;;;;4974864;28;20212;-67
2022/11/12 00:56:58;;;;;;;25.80;16.60;;;7.00;99.90;;;;;;4974894;28;20204;-67
2022/11/12 00:59:24;;;;;;;27.73;16.93;;;7.00;99.90;;;;;;4973610;28;20218;-66
2022/11/12 01:01:51;;;;;;;25.83;16.30;;;7.00;99.90;;;;;;4973947;28;20200;-67
2022/11/12 01:04:18;;;;;;;24.33;15.90;;;7.10;99.90;;;;;;4974048;28;20584;-67
2022/11/12 01:06:46;;;;;;;33.23;17.17;;;7.10;99.90;;;;;;4973679;28;20204;-67
2022/11/12 01:09:13;;;;;;;26.43;16.13;;;7.10;99.90;;;;;;4973834;28;20686;-67
2022/11/12 01:11:41;;;;;;;29.97;16.93;;;7.10;99.90;;;;;;4974184;28;20586;-68
2022/11/12 01:14:09;;;;;;;25.07;16.87;;;7.10;99.90;;;;;;4972188;28;20568;-66
2022/11/12 01:16:38;;;;;;;27.03;15.57;;;7.10;99.90;;;;;;4973487;28;20204;-70
2022/11/12 01:19:07;;;;;;;24.20;15.37;;;7.10;99.90;;;;;;4974589;28;20218;-66
2022/11/12 01:21:37;;;;;;;25.03;15.70;;;7.10;99.90;;;;;;4974353;28;20686;-67
2022/11/12 01:24:06;;;;;;;27.17;15.90;;;7.10;99.90;;;;;;4974368;28;20198;-67
2022/11/12 01:26:33;;;;;;;24.43;15.87;;;7.10;99.90;;;;;;4974312;28;20575;-67
2022/11/12 01:29:00;;;;;;;22.83;15.00;;;7.10;99.90;;;;;;4973630;28;20250;-66
2022/11/12 01:31:29;;;;;;;25.93;15.63;;;7.10;99.90;;;;;;4971475;28;20231;-68
2022/11/12 01:33:59;;;;;;;26.20;15.80;;;7.10;99.90;;;;;;4973543;28;20701;-67
2022/11/12 01:36:27;;;;;;;23.53;15.47;;;7.10;99.90;;;;;;4972691;28;20208;-67
2022/11/12 01:38:55;;;;;;;25.00;16.00;;;7.10;99.90;;;;;;4973911;28;20215;-67
2022/11/12 01:41:26;;;;;;;26.57;15.40;;;7.10;99.90;;;;;;4974095;28;20200;-68
2022/11/12 01:44:08;;;;;;;24.10;14.67;;;7.10;99.90;;;;;;4974239;28;20198;-67
2022/11/12 01:46:37;;;;;;;26.90;15.07;;;7.10;99.90;;;;;;4973941;28;20197;-66
2022/11/12 01:49:09;;;;;;;25.03;15.37;;;7.00;99.90;;;;;;4974016;28;20266;-66
2022/11/12 01:51:42;;;;;;;25.87;15.10;;;7.10;99.90;;;;;;4971246;28;20235;-66
2022/11/12 01:54:13;;;;;;;30.60;16.00;;;7.10;99.90;;;;;;4973023;28;20188;-68
2022/11/12 01:56:41;;;;;;;26.47;16.53;;;7.10;99.90;;;;;;4971699;28;20557;-66
2022/11/12 01:59:17;;;;;;;32.30;16.70;;;7.10;99.90;;;;;;4973134;28;20204;-66
2022/11/12 02:01:44;;;;;;;23.30;14.37;;;7.00;99.90;;;;;;4955560;28;20251;-69
2022/11/12 02:04:10;;;;;;;25.77;15.57;;;7.10;99.90;;;;;;4973041;28;20227;-68
2022/11/12 02:06:39;;;;;;;22.47;14.23;;;7.00;99.90;;;;;;4973792;28;20210;-69
2022/11/12 02:09:06;;;;;;;27.23;15.47;;;7.00;99.90;;;;;;4972154;28;20224;-68
2022/11/12 02:11:32;;;;;;;21.33;13.93;;;7.00;99.90;;;;;;4973401;28;20238;-67
2022/11/12 02:14:00;;;;;;;22.27;14.20;;;7.00;99.90;;;;;;4973817;28;20218;-67
2022/11/12 02:16:31;;;;;;;23.60;14.43;;;7.00;99.90;;;;;;4973819;28;20230;-68
2022/11/12 02:18:58;;;;;;;27.73;16.13;;;7.10;99.90;;;;;;4973245;28;20204;-67
2022/11/12 02:21:27;;;;;;;25.60;14.97;;;7.10;99.90;;;;;;4973168;28;20212;-68
2022/11/12 02:24:02;;;;;;;26.00;15.67;;;7.00;99.90;;;;;;4973500;28;20670;-69
2022/11/12 02:26:32;;;;;;;22.83;14.10;;;7.00;99.90;;;;;;4973552;28;20192;-68
2022/11/12 02:28:59;;;;;;;21.77;14.50;;;7.00;99.90;;;;;;4971264;28;20261;-67
2022/11/12 02:31:26;;;;;;;22.13;14.23;;;7.10;99.90;;;;;;4973190;28;20237;-69
2022/11/12 02:33:53;;;;;;;25.57;15.27;;;7.10;99.90;;;;;;4973807;28;20685;-68
2022/11/12 02:36:20;;;;;;;23.17;14.63;;;7.10;99.90;;;;;;4974285;28;20575;-69
2022/11/12 02:38:49;;;;;;;21.63;13.60;;;7.10;99.90;;;;;;4972994;28;20210;-70
2022/11/12 02:41:16;;;;;;;26.13;14.67;;;7.10;99.90;;;;;;4976126;28;20218;-69
2022/11/12 02:43:43;;;;;;;26.17;14.80;;;7.10;99.90;;;;;;4977421;28;20216;-70
2022/11/12 02:46:10;;;;;;;22.97;14.43;;;7.10;99.90;;;;;;4976784;28;20687;-70
2022/11/12 02:48:37;;;;;;;22.27;13.90;;;7.10;99.90;;;;;;4978000;28;20204;-68
2022/11/12 02:51:04;;;;;;;25.77;14.87;;;7.10;99.90;;;;;;4976636;28;20565;-68
2022/11/12 02:53:31;;;;;;;23.23;13.67;;;7.10;99.90;;;;;;4977676;28;20214;-69
2022/11/12 02:56:00;;;;;;;27.33;14.60;;;7.00;99.90;;;;;;4976566;28;20592;-69
2022/11/12 02:58:27;;;;;;;26.77;13.87;;;7.10;99.90;;;;;;4977150;28;20706;-71
2022/11/12 03:00:54;;;;;;;29.53;15.93;;;7.10;99.90;;;;;;4977286;28;20204;-69
2022/11/12 03:03:21;;;;;;;23.30;14.50;;;7.00;99.90;;;;;;4977655;28;20207;-69
2022/11/12 03:05:55;;;;;;;21.63;13.97;;;7.10;99.90;;;;;;4976418;28;20208;-69
2022/11/12 03:08:23;;;;;;;23.13;14.03;;;7.00;99.90;;;;;;4974481;28;20214;-70
2022/11/12 03:10:49;;;;;;;25.13;15.20;;;7.00;99.90;;;;;;4976220;28;20234;-71
2022/11/12 03:13:18;;;;;;;25.03;15.00;;;7.00;99.90;;;;;;4976990;28;20212;-68
2022/11/12 03:15:45;;;;;;;23.57;14.03;;;7.00;99.90;;;;;;4976198;28;20250;-69
2022/11/12 03:18:12;;;;;;;22.77;14.10;;;7.00;99.90;;;;;;4976685;28;20204;-70
2022/11/12 03:20:38;;;;;;;23.20;14.87;;;7.00;99.90;;;;;;4974540;28;20669;-69
2022/11/12 03:23:07;;;;;;;21.77;14.53;;;7.00;99.90;;;;;;4976865;28;20234;-69
2022/11/12 03:25:36;;;;;;;24.47;15.70;;;7.00;99.90;;;;;;4977163;28;20204;-69
2022/11/12 03:28:05;;;;;;;24.73;14.90;;;7.10;99.90;;;;;;4976512;28;20215;-68
2022/11/12 03:30:35;;;;;;;30.87;16.23;;;7.10;99.90;;;;;;4974416;28;20236;-69
2022/11/12 03:33:02;;;;;;;26.87;15.40;;;7.10;99.90;;;;;;4976391;28;20308;-69
2022/11/12 03:35:29;;;;;;;26.03;15.60;;;7.10;99.90;;;;;;4977275;28;20208;-69
2022/11/12 03:37:59;;;;;;;23.23;15.30;;;7.10;99.90;;;;;;4976759;28;20208;-69
2022/11/12 03:40:26;;;;;;;29.80;16.50;;;7.10;99.90;;;;;;4957056;28;20610;-67
2022/11/12 03:42:54;;;;;;;26.60;15.67;;;7.10;99.90;;;;;;4975727;28;20208;-66
2022/11/12 03:45:23;;;;;;;26.50;15.23;;;7.20;99.90;;;;;;4975953;28;20219;-67
2022/11/12 03:47:52;;;;;;;24.43;16.10;;;7.20;99.90;;;;;;4976350;28;20218;-67
2022/11/12 03:50:21;;;;;;;28.03;16.17;;;7.20;99.90;;;;;;4972303;28;20218;-67
2022/11/12 03:52:49;;;;;;;27.50;15.30;;;7.20;99.90;;;;;;4972129;28;20224;-66
2022/11/12 06:49:02;;;;;;;34.33;20.30;;;6.80;99.90;;;;;;5087342;28;20560;-68
2022/11/12 06:51:28;;;;;;;33.17;20.27;;;7.60;99.90;;;;;;5075630;28;20200;-67
2022/11/12 06:53:56;;;;;;;31.13;20.30;;;7.70;99.90;;;;;;5073010;28;20214;-68
2022/11/12 06:56:23;;;;;;;28.37;19.30;;;7.80;99.90;;;;;;5075965;28;20204;-67
2022/11/12 06:58:49;;;;;;;33.27;20.30;;;7.90;99.90;;;;;;5078424;28;20224;-68
2022/11/12 07:01:17;;;;;;;29.87;19.47;;;8.00;99.90;;;;;;5075243;28;20200;-67
2022/11/12 07:03:45;;;;;;;32.40;20.13;;;8.10;99.90;;;;;;5077256;28;20193;-67
2022/11/12 07:06:17;;;;;;;34.73;20.87;;;8.20;99.90;;;;;;5068002;28;20212;-67
2022/11/12 07:08:44;;;;;;;35.40;20.33;;;8.20;99.90;;;;;;5068121;28;20200;-68
2022/11/12 07:11:11;;;;;;;31.13;20.13;;;8.30;99.90;;;;;;5058455;28;20229;-69
2022/11/12 07:13:38;;;;;;;28.13;18.77;;;8.40;99.90;;;;;;5048315;28;20566;-67
2022/11/12 07:16:08;;;;;;;32.60;19.10;;;8.40;99.90;;;;;;5053752;28;20200;-68
2022/11/12 07:18:35;;;;;;;31.13;19.53;;;8.40;99.90;;;;;;5057317;28;20284;-67
2022/11/12 07:21:03;;;;;;;34.37;21.27;;;8.50;99.90;;;;;;5061311;28;20205;-67
2022/11/12 07:23:33;;;;;;;33.90;20.37;;;8.50;99.90;;;;;;5052124;28;20270;-70
2022/11/12 07:26:02;;;;;;;32.37;21.17;;;8.50;99.90;;;;;;5048360;28;20209;-67
2022/11/12 07:28:29;;;;;;;31.80;19.83;;;8.60;99.90;;;;;;5048279;28;20233;-68
2022/11/12 07:30:57;;;;;;;34.10;21.63;;;8.60;99.90;;;;;;5048042;28;20207;-66
2022/11/12 07:33:25;;;;;;;37.67;22.30;;;8.60;99.90;;;;;;5045823;28;20198;-67
2022/11/12 07:35:58;;;;;;;36.03;21.07;;;8.70;99.90;;;;;;5047520;28;20206;-68
2022/11/12 07:38:25;;;;;;;32.63;21.07;;;8.70;99.90;;;;;;5048101;28;20592;-71
2022/11/12 07:40:59;;;;;;;33.80;21.10;;;8.80;99.90;;;;;;5048222;28;20663;-66
2022/11/12 07:43:25;;;;;;;35.87;20.87;;;8.80;99.90;;;;;;5046801;28;20201;-67
2022/11/12 07:45:52;;;;;;;38.47;21.20;;;8.80;99.90;;;;;;5047785;28;20209;-68
2022/11/12 07:48:19;;;;;;;38.13;21.83;;;8.90;99.90;;;;;;5042013;28;21445;-68
2022/11/12 07:50:46;;;;;;;41.03;21.03;;;8.90;99.90;;;;;;5034546;28;20236;-70
2022/11/12 07:53:12;;;;;;;39.13;23.00;;;9.00;99.90;;;;;;5034268;28;20206;-67
2022/11/12 07:55:39;;;;;;;38.40;21.57;;;9.00;99.90;;;;;;5034192;28;20411;-69
2022/11/12 07:58:07;;;;;;;32.83;22.20;;;9.00;99.90;;;;;;5033477;28;20314;-70
2022/11/12 08:00:34;;;;;;;37.77;21.93;;;9.10;99.90;;;;;;5034514;28;20202;-67
2022/11/12 08:03:01;;;;;;;40.97;23.37;;;9.10;99.90;;;;;;5034530;28;20210;-67
2022/11/12 08:05:28;;;;;;;35.30;21.50;;;9.10;99.90;;;;;;5034432;28;20202;-68
2022/11/12 08:07:55;;;;;;;37.97;22.00;;;9.20;99.90;;;;;;5034100;28;20229;-69
2022/11/12 08:10:22;;;;;;;34.33;21.73;;;9.20;99.90;;;;;;5034519;28;20206;-68
2022/11/12 08:12:49;;;;;;;35.00;21.10;;;9.30;99.90;;;;;;5034072;28;20216;-67
2022/11/12 08:15:17;;;;;;;37.20;21.30;;;9.40;99.90;;;;;;5034296;28;20209;-68
2022/11/12 08:17:44;;;;;;;33.10;20.23;;;9.40;99.90;;;;;;5034293;28;20288;-67
2022/11/12 08:20:12;;;;;;;36.77;22.77;;;9.50;99.90;;;;;;5034222;28;20206;-66
2022/11/12 08:22:39;;;;;;;37.23;22.73;;;9.50;99.90;;;;;;5033921;28;20213;-67
2022/11/12 08:25:06;;;;;;;31.70;20.57;;;9.60;99.90;;;;;;5033709;28;20210;-67
2022/11/12 08:27:33;;;;;;;37.40;22.00;;;9.70;99.90;;;;;;5033554;28;20228;-67
2022/11/12 08:30:00;;;;;;;38.47;21.23;;;9.70;99.90;;;;;;5033972;28;20206;-66
2022/11/12 08:32:28;;;;;;;38.10;21.13;;;9.80;99.90;;;;;;5033881;28;20547;-67
2022/11/12 08:34:55;;;;;;;37.93;22.40;;;9.90;99.90;;;;;;5033836;28;20206;-68
2022/11/12 08:37:22;;;;;;;36.40;21.33;;;10.00;99.90;;;;;;5033837;28;20198;-67
2022/11/12 08:39:49;;;;;;;34.90;20.47;;;10.10;99.90;;;;;;5034305;28;20206;-67
2022/11/12 08:42:15;;;;;;;37.33;21.30;;;10.20;99.90;;;;;;5033828;28;20208;-70
2022/11/12 08:44:42;;;;;;;39.90;20.90;;;10.30;99.90;;;;;;5033733;28;20213;-68
2022/11/12 08:47:09;;;;;;;34.70;20.57;;;10.40;99.90;;;;;;5033385;28;20242;-71
2022/11/12 08:49:39;;;;;;;34.07;20.33;;;10.50;99.90;;;;;;5033536;28;20253;-69
2022/11/12 08:52:06;;;;;;;32.97;20.50;;;10.60;99.90;;;;;;5033596;28;20226;-69
2022/11/12 08:54:33;;;;;;;31.30;20.20;;;10.70;99.90;;;;;;5033426;28;20202;-70
2022/11/12 08:57:00;;;;;;;34.00;20.03;;;10.80;99.90;;;;;;5033527;28;20225;-71
2022/11/12 08:59:26;;;;;;;30.67;19.87;;;10.90;99.90;;;;;;5033040;28;20202;-71
2022/11/12 09:01:53;;;;;;;32.93;19.53;;;11.00;99.90;;;;;;5032572;28;20202;-70
2022/11/12 09:04:20;;;;;;;32.43;19.53;;;11.10;99.90;;;;;;5033123;28;20208;-73
2022/11/12 09:06:48;;;;;;;30.97;18.90;;;11.10;99.90;;;;;;5033109;28;20206;-69
2022/11/12 09:09:15;;;;;;;34.27;18.87;;;11.20;99.90;;;;;;5033177;28;20542;-69
2022/11/12 09:11:41;;;;;;;34.60;20.20;;;11.30;99.90;;;;;;5033148;28;20260;-71
2022/11/12 18:53:14;;;;;;;26.30;15.10;;;9.90;99.90;;;;;;5045486;28;20567;-69
2022/11/12 18:55:40;;;;;;;24.53;15.10;;;10.40;99.90;;;;;;5045200;28;20206;-70
2022/11/12 18:58:07;;;;;;;27.30;15.57;;;10.50;99.90;;;;;;5044827;27;20651;-69
2022/11/12 19:00:34;;;;;;;26.27;15.67;;;10.50;99.90;;;;;;5065059;27;20560;-69
2022/11/12 19:03:01;;;;;;;24.67;14.77;;;10.60;99.90;;;;;;5045388;28;20543;-69
2022/11/12 19:05:28;;;;;;;27.17;15.80;;;10.50;99.90;;;;;;5045060;28;20284;-69
2022/11/12 19:07:54;;;;;;;24.10;15.57;;;10.60;99.90;;;;;;5045570;28;20212;-69
2022/11/12 19:10:23;;;;;;;28.20;16.17;;;10.60;99.90;;;;;;5045500;28;20232;-68
2022/11/12 19:12:49;;;;;;;26.00;14.83;;;10.60;99.90;;;;;;5049414;27;20643;-69
2022/11/12 19:15:16;;;;;;;27.37;15.60;;;10.60;99.90;;;;;;5057313;27;20286;-68
2022/11/12 19:17:43;;;;;;;30.23;17.70;;;10.60;99.90;;;;;;5046294;27;20546;-69
2022/11/12 19:20:10;;;;;;;31.00;15.83;;;10.60;99.90;;;;;;5025311;27;20241;-69
2022/11/12 19:22:37;;;;;;;28.57;17.00;;;10.60;99.90;;;;;;5025307;28;20203;-70
2022/11/12 19:25:05;;;;;;;28.77;16.43;;;10.50;99.90;;;;;;5025533;28;20205;-69
2022/11/12 19:27:33;;;;;;;24.27;15.20;;;10.50;99.90;;;;;;5049537;27;20217;-67
2022/11/12 19:30:00;;;;;;;27.00;15.40;;;10.50;99.90;;;;;;5042159;27;20297;-68
2022/11/12 19:32:27;;;;;;;25.10;15.07;;;10.50;99.90;;;;;;5037482;28;20247;-67
2022/11/12 19:34:53;;;;;;;24.37;15.17;;;10.50;99.90;;;;;;5043707;28;20205;-67
2022/11/12 19:37:20;;;;;;;25.73;15.50;;;10.50;99.90;;;;;;5051045;27;20227;-68
2022/11/12 19:39:47;;;;;;;23.83;14.40;;;10.50;99.90;;;;;;5045097;27;20674;-66
2022/11/12 19:42:14;;;;;;;26.57;14.60;;;10.50;99.90;;;;;;5066535;27;20287;-67
2022/11/12 19:44:42;;;;;;;22.90;14.50;;;10.50;99.90;;;;;;5149073;27;20565;-70
2022/11/12 19:47:09;;;;;;;22.13;14.00;;;10.50;99.90;;;;;;5068862;27;20226;-69
2022/11/12 19:49:35;;;;;;;23.73;12.73;;;10.50;99.90;;;;;;5033670;28;20206;-69
2022/11/12 19:52:02;;;;;;;21.07;13.40;;;10.50;99.90;;;;;;5043001;28;20245;-68
2022/11/12 19:54:29;;;;;;;32.97;19.53;;;10.50;99.90;;;;;;5021372;28;20206;-67
2022/11/12 19:56:56;;;;;;;25.60;14.23;;;10.50;99.90;;;;;;5023181;28;20230;-69
2022/11/12 19:59:22;;;;;;;19.57;12.53;;;10.50;99.90;;;;;;5010830;28;20209;-70
2022/11/12 20:01:51;;;;;;;25.73;12.90;;;10.50;99.90;;;;;;5011615;28;20648;-70
2022/11/12 20:04:17;;;;;;;19.90;12.53;;;10.50;99.90;;;;;;5034954;27;20202;-68
2022/11/12 20:06:44;;;;;;;19.17;12.13;;;10.60;99.90;;;;;;5015029;28;20293;-69
2022/11/12 20:09:11;;;;;;;20.00;12.10;;;10.50;99.90;;;;;;5021602;28;20201;-69
2022/11/12 20:11:38;;;;;;;18.90;12.03;;;10.60;99.90;;;;;;5020255;28;20311;-69
2022/11/12 20:14:04;;;;;;;16.03;10.97;;;10.60;99.90;;;;;;5021237;28;20195;-68
2022/11/12 20:16:31;;;;;;;18.97;11.63;;;10.60;99.90;;;;;;5020067;28;20209;-70
2022/11/12 20:19:00;;;;;;;16.93;11.60;;;10.60;99.90;;;;;;5023307;28;20198;-69
2022/11/12 20:21:27;;;;;;;19.80;10.67;;;10.60;99.90;;;;;;5021296;28;20202;-65
2022/11/12 20:23:53;;;;;;;18.37;10.50;;;10.60;99.90;;;;;;5024654;28;20202;-67
2022/11/12 20:26:20;;;;;;;17.63;10.27;;;10.60;99.90;;;;;;5018552;28;20195;-67
2022/11/12 20:28:47;;;;;;;16.23;10.13;;;10.60;99.90;;;;;;5049666;27;20209;-68
2022/11/12 20:31:15;;;;;;;20.37;10.70;;;10.60;99.90;;;;;;5068379;27;20232;-69
2022/11/12 20:33:42;;;;;;;15.77;9.13;;;10.60;99.90;;;;;;5085047;27;20294;-67
2022/11/12 20:36:12;;;;;;;12.00;8.23;;;10.60;99.90;;;;;;5129817;27;20715;-67
2022/11/12 20:38:40;;;;;;;11.10;7.27;;;10.60;99.90;;;;;;5034564;28;20648;-69
2022/11/12 20:41:12;;;;;;;10.30;7.23;;;10.50;99.90;;;;;;5030701;28;20210;-67
2022/11/12 20:43:38;;;;;;;11.07;7.33;;;10.50;99.90;;;;;;5030510;28;20190;-68
2022/11/12 20:46:06;;;;;;;12.43;7.30;;;10.50;99.90;;;;;;5043195;28;20206;-67
2022/11/12 20:48:33;;;;;;;8.73;6.33;;;10.50;99.90;;;;;;5019086;28;20218;-69
2022/11/12 20:51:04;;;;;;;10.73;6.63;;;10.50;99.90;;;;;;5010372;28;20659;-68
2022/11/12 20:53:32;;;;;;;9.97;6.73;;;10.40;99.90;;;;;;5010346;28;20266;-68
2022/11/12 20:56:08;;;;;;;10.83;8.40;;;10.50;99.90;;;;;;5010477;28;20203;-68
2022/11/12 20:58:35;;;;;;;10.90;7.50;;;10.50;99.90;;;;;;5010318;28;20214;-70
2022/11/12 21:01:03;;;;;;;10.03;6.63;;;10.50;99.90;;;;;;5011155;28;20587;-68
2022/11/12 21:03:29;;;;;;;8.77;7.13;;;10.60;99.90;;;;;;5098625;27;20209;-70
2022/11/12 21:05:58;;;;;;;8.87;6.57;;;10.60;99.90;;;;;;5030639;27;20204;-68
2022/11/12 21:08:25;;;;;;;11.23;7.27;;;10.60;99.90;;;;;;5074004;27;20202;-70
2022/11/12 21:10:53;;;;;;;11.43;7.40;;;10.60;99.90;;;;;;5036116;27;20210;-68
2022/11/12 21:13:22;;;;;;;10.40;7.17;;;10.60;99.90;;;;;;5029492;28;20230;-71
2022/11/12 21:15:49;;;;;;;9.67;6.63;;;10.60;99.90;;;;;;5018732;28;20293;-69
2022/11/12 21:18:16;;;;;;;7.67;5.90;;;10.60;99.90;;;;;;5065491;27;20202;-70
2022/11/12 21:20:44;;;;;;;11.23;6.17;;;10.50;99.90;;;;;;5015453;27;20206;-68
2022/11/12 21:23:11;;;;;;;8.97;6.00;;;10.50;99.90;;;;;;5061377;27;20199;-68
2022/11/12 21:25:39;;;;;;;7.43;5.60;;;10.50;99.90;;;;;;5134097;27;20202;-69
2022/11/12 21:28:07;;;;;;;8.97;6.33;;;10.60;99.90;;;;;;5127772;27;20207;-70
2022/11/12 21:30:34;;;;;;;11.03;6.80;;;10.70;99.90;;;;;;5028782;27;20308;-68
2022/11/12 21:33:00;;;;;;;10.20;6.20;;;10.70;99.90;;;;;;5039534;27;20214;-68
2022/11/12 21:35:27;;;;;;;9.17;6.07;;;10.70;99.90;;;;;;5027297;28;20212;-67
2022/11/12 21:37:55;;;;;;;8.40;5.80;;;10.70;99.90;;;;;;5044984;28;20204;-67
2022/11/12 21:40:23;;;;;;;7.87;5.57;;;10.60;99.90;;;;;;5049439;28;20239;-68
2022/11/12 21:42:50;;;;;;;6.63;5.30;;;10.60;99.90;;;;;;5107202;27;20199;-68
2022/11/12 21:45:18;;;;;;;9.63;5.20;;;10.60;99.90;;;;;;5133307;27;20209;-67
2022/11/12 21:47:45;;;;;;;7.93;5.27;;;10.70;99.90;;;;;;5035653;27;20198;-69
2022/11/12 21:50:12;;;;;;;7.00;4.97;;;10.60;99.90;;;;;;5029627;28;20202;-68
2022/11/12 21:52:39;;;;;;;7.37;5.23;;;10.70;99.90;;;;;;5032560;27;20238;-68
2022/11/12 21:55:07;;;;;;;6.80;4.60;;;10.60;99.90;;;;;;5027813;28;20671;-67
2022/11/12 21:57:34;;;;;;;6.73;4.50;;;10.60;99.90;;;;;;5039113;27;20211;-68
2022/11/12 22:00:00;;;;;;;7.10;4.60;;;10.60;99.90;;;;;;5064011;27;20201;-68
2022/11/12 22:02:29;;;;;;;6.77;4.80;;;10.60;99.90;;;;;;5032044;28;20200;-69
2022/11/12 22:04:55;;;;;;;6.83;4.77;;;10.60;99.90;;;;;;5019175;28;20666;-69
2022/11/12 22:07:22;;;;;;;5.63;4.23;;;10.60;99.90;;;;;;5018083;28;20683;-67
2022/11/12 22:09:49;;;;;;;6.87;4.33;;;10.60;99.90;;;;;;5015345;28;20215;-68
2022/11/12 22:12:16;;;;;;;7.23;4.60;;;10.60;99.90;;;;;;5015183;28;20232;-69
2022/11/12 22:14:42;;;;;;;7.60;4.50;;;10.60;99.90;;;;;;5045924;27;20677;-68
2022/11/12 22:17:09;;;;;;;6.73;4.50;;;10.60;99.90;;;;;;5039172;28;20599;-68
2022/11/12 22:19:37;;;;;;;5.87;4.50;;;10.60;99.90;;;;;;5028876;28;20698;-67
2022/11/12 22:22:04;;;;;;;8.50;4.57;;;10.50;99.90;;;;;;5028525;28;20210;-68
2022/11/12 22:24:31;;;;;;;6.70;4.20;;;10.50;99.90;;;;;;5028965;28;20221;-67
2022/11/12 22:26:58;;;;;;;6.97;4.50;;;10.50;99.90;;;;;;5029337;28;20209;-67
2022/11/12 22:29:24;;;;;;;6.83;4.13;;;10.50;99.90;;;;;;5029053;28;20558;-67
2022/11/12 22:31:51;;;;;;;6.23;4.20;;;10.40;99.90;;;;;;5028980;28;20571;-68
2022/11/12 22:34:18;;;;;;;5.60;3.80;;;10.40;99.90;;;;;;5028939;28;20598;-67
2022/11/12 22:36:46;;;;;;;5.50;3.90;;;10.40;99.90;;;;;;5032464;28;20206;-66
2022/11/12 22:39:13;;;;;;;5.87;4.00;;;10.40;99.90;;;;;;5017570;28;20201;-68
2022/11/12 22:41:40;;;;;;;6.07;4.10;;;10.40;99.90;;;;;;5025344;28;20202;-68
2022/11/12 22:44:06;;;;;;;9.90;4.43;;;10.40;99.90;;;;;;5032829;28;20213;-69
2022/11/12 22:46:34;;;;;;;7.13;4.07;;;10.40;99.90;;;;;;5028681;28;20197;-68
2022/11/12 22:49:02;;;;;;;8.23;4.47;;;10.30;99.90;;;;;;5048771;28;20211;-68
2022/11/12 22:51:31;;;;;;;8.23;4.87;;;10.20;99.90;;;;;;5040618;28;20236;-68
2022/11/12 22:54:01;;;;;;;10.17;5.47;;;10.10;99.90;;;;;;5006941;28;20206;-68
2022/11/12 22:56:28;;;;;;;7.50;5.33;;;10.10;99.90;;;;;;5029887;28;20198;-69
2022/11/12 22:58:55;;;;;;;8.60;5.30;;;10.10;99.90;;;;;;5028577;28;20674;-69
2022/11/12 23:01:26;;;;;;;9.57;6.03;;;10.00;99.90;;;;;;5035473;28;20212;-69
2022/11/12 23:03:56;;;;;;;8.13;5.67;;;10.00;99.90;;;;;;5032102;28;20554;-69
2022/11/12 23:06:23;;;;;;;10.10;6.70;;;9.90;99.90;;;;;;5048539;28;20210;-70
2022/11/12 23:08:50;;;;;;;9.43;5.70;;;9.90;99.90;;;;;;5048500;28;20266;-72
2022/11/12 23:11:20;;;;;;;8.63;5.50;;;9.80;99.90;;;;;;5040115;28;20214;-69
2022/11/12 23:13:47;;;;;;;8.23;5.53;;;9.80;99.90;;;;;;5027577;28;20218;-69
2022/11/12 23:16:17;;;;;;;8.03;4.83;;;9.70;99.90;;;;;;5027418;28;20217;-68
2022/11/12 23:18:44;;;;;;;7.70;5.13;;;9.70;99.90;;;;;;5027786;28;20236;-68
2022/11/12 23:21:15;;;;;;;7.30;4.87;;;9.70;99.90;;;;;;5028180;28;20202;-68
2022/11/12 23:23:42;;;;;;;7.43;5.20;;;9.70;99.90;;;;;;5028332;28;20218;-68
2022/11/12 23:26:11;;;;;;;9.13;5.20;;;9.70;99.90;;;;;;5032451;28;20216;-67
2022/11/12 23:28:40;;;;;;;8.60;5.80;;;9.80;99.90;;;;;;5036219;28;20217;-68
2022/11/12 23:31:14;;;;;;;8.93;6.00;;;9.80;99.90;;;;;;5011534;28;20210;-68
2022/11/12 23:33:44;;;;;;;8.37;6.30;;;9.80;99.90;;;;;;5011731;28;20215;-69
2022/11/12 23:36:11;;;;;;;10.57;6.47;;;9.90;99.90;;;;;;5011713;28;20191;-69
2022/11/12 23:38:38;;;;;;;11.57;7.00;;;9.90;99.90;;;;;;5011949;28;20210;-68
2022/11/12 23:41:06;;;;;;;9.43;6.20;;;9.80;99.90;;;;;;5011597;28;20214;-69
2022/11/12 23:43:33;;;;;;;10.00;6.40;;;9.80;99.90;;;;;;5012011;28;20680;-67
2022/11/12 23:46:01;;;;;;;13.47;6.93;;;9.90;99.90;;;;;;5012450;28;20229;-67
2022/11/12 23:48:28;;;;;;;10.07;5.70;;;9.90;99.90;;;;;;5015605;28;20201;-68
2022/11/12 23:51:01;;;;;;;9.13;6.07;;;9.90;99.90;;;;;;5031348;28;20216;-69
2022/11/12 23:53:28;;;;;;;11.30;5.43;;;9.90;99.90;;;;;;5031305;28;20581;-69
2022/11/12 23:55:55;;;;;;;9.87;5.83;;;9.80;99.90;;;;;;5031540;28;20301;-68
2022/11/12 23:58:21;;;;;;;10.87;6.03;;;9.90;99.90;;;;;;5031292;28;20206;-69
